aviador You're here:

KEST Decoded Metar

ESTHERVILLE in IA, USA
Report Time2017-08-22 21:52:00
UTC Time2017-08-22 22:30:19
Flight Rules vfr VFR
Wind320° at 13 Gusting to 18 kt
W.Decomp.*RWY 34: 11.7 kt HW 5.7 kt LCW
RWY 24: 3.6 kt HW 12.5 kt RCW
W.Rank320° ranks 7
Current wind is above 320° avg. (11.4)
Visibility9999 m
Phenomena:N/A
Clouds:N/A
Expected CloudBase > 4,400 ft AGL from Temp-Dew spread
CeilingNone
Temp22°C (ISA +10)
Dew Point11°C (50% RH)
AAT17.7°C
QNH1020 hPa
Density Alt2,379 ft
Elevation1,316 ft
Report Wrong Elevation
Raw Report
KEST 222152Z AUTO 32013G18KT 10SM CLR 22/11 A3011 RMK AO2 SLP192
T02220106 $=

Extra information for KEST:More info

Metar Taf Metar & Taf Last 4 Metars F.Rules Stats Wind Profile Meteogram Temp Stats Airport Information Weather charts Add Link Nearby VenuesMetar ALERT Operation Metar Decoded Social comments

AIRNAV info for KEST